Time;durP1;ratioP1;P1;durP2;ratioP2;P2;SDS_P1;SDS_P2;PMS_P1;PMS_P2;Temp;Humidity;BMP_temperature;BMP_pressure;BME280_temperature;BME280_humidity;BME280_pressure;Samples;Min_cycle;Max_cycle;Signal;HPM_P1;HPM_P2
2023/12/18 00:02:05;;;;;;;15.07;6.50;;;;;;;;;;6209318;28;20037;-76
2023/12/18 00:05:08;;;;;;;11.05;5.90;;;;;;;;;;6185174;28;20065;-77
2023/12/18 00:08:11;;;;;;;14.25;6.22;;;;;;;;;;6205419;28;20128;-78
2023/12/18 00:11:14;;;;;;;13.55;5.95;;;;;;;;;;6208251;28;20151;-76
2023/12/18 00:14:16;;;;;;;9.63;5.10;;;;;;;;;;6186624;28;20080;-78
2023/12/18 00:17:18;;;;;;;16.83;5.88;;;;;;;;;;6205388;28;20499;-79
2023/12/18 00:20:21;;;;;;;13.35;5.47;;;;;;;;;;6205795;28;20093;-79
2023/12/18 00:23:23;;;;;;;9.45;5.13;;;;;;;;;;6205543;28;20049;-79
2023/12/18 00:26:25;;;;;;;9.70;5.20;;;;;;;;;;6207851;28;20037;-79
2023/12/18 00:29:27;;;;;;;13.77;5.35;;;;;;;;;;6206168;28;20054;-79
2023/12/18 00:32:29;;;;;;;12.35;6.28;;;;;;;;;;6208109;28;20077;-78
2023/12/18 00:35:30;;;;;;;12.07;5.97;;;;;;;;;;6205178;28;20052;-78
2023/12/18 00:38:33;;;;;;;15.52;6.07;;;;;;;;;;6208123;28;20054;-77
2023/12/18 00:41:34;;;;;;;11.27;5.30;;;;;;;;;;6203717;28;20427;-77
2023/12/18 00:44:36;;;;;;;15.40;5.80;;;;;;;;;;6202666;28;20576;-76
2023/12/18 00:47:38;;;;;;;11.20;5.80;;;;;;;;;;6178482;28;20077;-78
2023/12/18 00:50:40;;;;;;;14.15;6.60;;;;;;;;;;6205170;28;20053;-76
2023/12/18 00:53:42;;;;;;;14.90;6.30;;;;;;;;;;6205423;28;20053;-79
2023/12/18 00:56:44;;;;;;;11.75;5.38;;;;;;;;;;6206837;28;20424;-78
2023/12/18 00:59:46;;;;;;;17.02;5.82;;;;;;;;;;6204794;28;20490;-77
2023/12/18 01:02:48;;;;;;;15.90;5.70;;;;;;;;;;6190075;28;20573;-78
2023/12/18 01:05:50;;;;;;;13.30;5.35;;;;;;;;;;6205729;28;20038;-76
2023/12/18 01:08:51;;;;;;;13.18;4.82;;;;;;;;;;6201839;28;20042;-77
2023/12/18 01:11:53;;;;;;;13.60;4.97;;;;;;;;;;6206785;28;20054;-79
2023/12/18 01:14:55;;;;;;;12.30;5.50;;;;;;;;;;6205812;28;20516;-79
2023/12/18 01:17:57;;;;;;;14.27;5.53;;;;;;;;;;6206342;28;20056;-79
2023/12/18 01:21:03;;;;;;;14.70;6.22;;;;;;;;;;6189342;28;20049;-78
2023/12/18 01:24:06;;;;;;;8.55;4.45;;;;;;;;;;6202952;28;20041;-78
2023/12/18 01:27:08;;;;;;;12.05;5.13;;;;;;;;;;6204448;28;20046;-79
2023/12/18 01:30:10;;;;;;;12.73;5.07;;;;;;;;;;6203672;28;20046;-79
2023/12/18 01:33:12;;;;;;;12.75;5.47;;;;;;;;;;6206811;28;20053;-79
2023/12/18 01:36:14;;;;;;;15.23;5.50;;;;;;;;;;6204976;28;20053;-77
2023/12/18 01:39:15;;;;;;;12.32;5.40;;;;;;;;;;6206540;28;20057;-77
2023/12/18 01:42:17;;;;;;;12.73;5.38;;;;;;;;;;6229247;28;20049;-78
2023/12/18 01:45:19;;;;;;;13.73;5.13;;;;;;;;;;6207282;28;20066;-76
2023/12/18 01:48:21;;;;;;;11.77;5.30;;;;;;;;;;6207184;28;20057;-78
2023/12/18 01:51:23;;;;;;;13.25;4.63;;;;;;;;;;6181116;28;20180;-78
2023/12/18 01:54:25;;;;;;;12.75;5.68;;;;;;;;;;6205733;28;20427;-79
2023/12/18 01:57:27;;;;;;;14.30;5.10;;;;;;;;;;6205732;28;20125;-79
2023/12/18 02:00:29;;;;;;;14.98;6.10;;;;;;;;;;6187392;28;20577;-79
2023/12/18 02:03:31;;;;;;;14.50;5.38;;;;;;;;;;6205156;28;20227;-79
2023/12/18 02:06:33;;;;;;;15.00;5.35;;;;;;;;;;6205921;28;20045;-78
2023/12/18 02:09:35;;;;;;;10.52;4.90;;;;;;;;;;6204597;28;20134;-78
2023/12/18 02:12:37;;;;;;;13.48;5.40;;;;;;;;;;6206140;28;20042;-78
2023/12/18 02:15:39;;;;;;;15.40;4.90;;;;;;;;;;6203009;28;20072;-77
2023/12/18 02:18:45;;;;;;;13.85;5.25;;;;;;;;;;6204531;28;20106;-79
2023/12/18 02:21:47;;;;;;;14.40;5.35;;;;;;;;;;6204278;28;20157;-78
2023/12/18 02:24:49;;;;;;;27.48;9.93;;;;;;;;;;6203894;28;20192;-78
2023/12/18 02:27:51;;;;;;;15.82;6.22;;;;;;;;;;6203881;28;20131;-77
2023/12/18 02:30:54;;;;;;;10.75;5.05;;;;;;;;;;6201150;28;20542;-77
2023/12/18 02:33:56;;;;;;;17.55;5.70;;;;;;;;;;6202544;28;20053;-77
2023/12/18 02:36:58;;;;;;;12.50;5.57;;;;;;;;;;6201312;28;20143;-75
2023/12/18 02:40:00;;;;;;;15.07;5.57;;;;;;;;;;6197828;28;21017;-78
2023/12/18 02:43:02;;;;;;;13.63;4.88;;;;;;;;;;6186483;28;20053;-79
2023/12/18 02:46:04;;;;;;;15.18;6.20;;;;;;;;;;6201625;28;20133;-77
2023/12/18 02:49:06;;;;;;;18.75;6.00;;;;;;;;;;6201384;28;20038;-77
2023/12/18 02:52:08;;;;;;;14.02;5.22;;;;;;;;;;6184855;28;20091;-78
2023/12/18 02:55:12;;;;;;;12.23;5.10;;;;;;;;;;6179260;28;20050;-80
2023/12/18 02:58:14;;;;;;;13.77;4.55;;;;;;;;;;6200886;28;20135;-77
2023/12/18 03:01:15;;;;;;;10.48;4.35;;;;;;;;;;6199436;28;20057;-79
2023/12/18 03:04:18;;;;;;;12.95;4.90;;;;;;;;;;6202533;28;20058;-80
2023/12/18 03:07:20;;;;;;;17.02;5.53;;;;;;;;;;6187798;28;20192;-77
2023/12/18 03:10:22;;;;;;;12.95;5.50;;;;;;;;;;6203491;28;20148;-80
2023/12/18 03:13:24;;;;;;;12.13;5.53;;;;;;;;;;6188105;28;20045;-80
2023/12/18 03:16:26;;;;;;;13.43;4.97;;;;;;;;;;6179529;28;20053;-77
2023/12/18 03:19:28;;;;;;;8.63;4.18;;;;;;;;;;6201785;28;20045;-78
2023/12/18 03:22:29;;;;;;;13.95;4.60;;;;;;;;;;6201504;28;20057;-80
2023/12/18 03:25:31;;;;;;;13.40;4.80;;;;;;;;;;6179955;28;20053;-80
2023/12/18 03:28:33;;;;;;;13.07;4.72;;;;;;;;;;6185731;28;20095;-78
2023/12/18 03:31:35;;;;;;;10.30;4.55;;;;;;;;;;6203217;28;20058;-77
2023/12/18 03:34:37;;;;;;;10.32;4.88;;;;;;;;;;6204125;28;20053;-81
2023/12/18 03:37:39;;;;;;;10.93;4.53;;;;;;;;;;6207314;28;20042;-78
2023/12/18 03:40:41;;;;;;;10.57;4.35;;;;;;;;;;6213242;28;20125;-77
2023/12/18 03:43:43;;;;;;;11.10;4.25;;;;;;;;;;6191470;28;20196;-76
2023/12/18 03:46:45;;;;;;;9.80;4.22;;;;;;;;;;6207558;28;20069;-80
2023/12/18 03:49:47;;;;;;;12.25;5.00;;;;;;;;;;6189101;28;20137;-79
2023/12/18 03:52:49;;;;;;;11.02;4.60;;;;;;;;;;6204278;28;20050;-79
2023/12/18 03:55:50;;;;;;;8.60;4.10;;;;;;;;;;6183910;28;20049;-77
2023/12/18 03:58:52;;;;;;;12.40;5.40;;;;;;;;;;6220790;28;20049;-80
2023/12/18 04:01:54;;;;;;;12.88;5.40;;;;;;;;;;6233269;28;20042;-80
2023/12/18 04:04:56;;;;;;;11.27;4.88;;;;;;;;;;6185430;28;20046;-79
2023/12/18 04:07:58;;;;;;;9.98;4.63;;;;;;;;;;6203852;28;20046;-80
2023/12/18 04:11:00;;;;;;;11.18;4.53;;;;;;;;;;6204327;28;20050;-80
2023/12/18 04:14:02;;;;;;;13.75;4.63;;;;;;;;;;6198204;28;21107;-80
2023/12/18 04:17:04;;;;;;;9.77;4.37;;;;;;;;;;6193455;28;20046;-80
2023/12/18 04:20:06;;;;;;;8.30;3.95;;;;;;;;;;6194364;28;20098;-79
2023/12/18 04:23:08;;;;;;;8.77;4.65;;;;;;;;;;6193810;28;20046;-80
2023/12/18 04:26:10;;;;;;;10.55;4.65;;;;;;;;;;6190948;28;20133;-79
2023/12/18 04:29:12;;;;;;;8.95;4.20;;;;;;;;;;6182936;28;20057;-80
2023/12/18 04:32:13;;;;;;;11.27;3.65;;;;;;;;;;6207239;28;20265;-80
2023/12/18 04:35:15;;;;;;;6.65;3.88;;;;;;;;;;6202461;28;20042;-79
2023/12/18 04:38:17;;;;;;;9.38;4.43;;;;;;;;;;6187029;28;20073;-80
2023/12/18 04:41:20;;;;;;;7.43;3.65;;;;;;;;;;6204869;28;20046;-80
2023/12/18 04:44:23;;;;;;;6.93;3.70;;;;;;;;;;6198723;28;20545;-80
2023/12/18 04:47:25;;;;;;;8.25;3.78;;;;;;;;;;6205928;28;21747;-80
2023/12/18 04:50:27;;;;;;;7.88;3.65;;;;;;;;;;6179712;28;20034;-79
2023/12/18 04:53:29;;;;;;;7.68;3.70;;;;;;;;;;6203928;28;20542;-79
2023/12/18 04:56:34;;;;;;;7.05;3.53;;;;;;;;;;6205214;28;20050;-80
2023/12/18 04:59:36;;;;;;;6.90;3.38;;;;;;;;;;6203827;28;20522;-79
2023/12/18 05:02:38;;;;;;;6.82;3.17;;;;;;;;;;6205558;28;20046;-77
2023/12/18 05:05:40;;;;;;;6.05;3.30;;;;;;;;;;6185525;28;20048;-79
2023/12/18 05:08:42;;;;;;;6.60;3.60;;;;;;;;;;6201616;28;20697;-79
2023/12/18 05:11:44;;;;;;;6.38;3.15;;;;;;;;;;6204624;28;20049;-79
2023/12/18 05:14:46;;;;;;;8.23;3.60;;;;;;;;;;6203831;28;20046;-79
2023/12/18 05:17:47;;;;;;;6.25;3.80;;;;;;;;;;6204029;28;20081;-79
2023/12/18 05:20:52;;;;;;;8.10;4.00;;;;;;;;;;6205601;28;20109;-79
2023/12/18 05:23:55;;;;;;;5.90;3.83;;;;;;;;;;6201860;28;20543;-80
2023/12/18 05:26:57;;;;;;;7.38;3.67;;;;;;;;;;6204263;28;20060;-80
2023/12/18 05:29:58;;;;;;;6.68;3.55;;;;;;;;;;6186697;28;20042;-81
2023/12/18 05:33:02;;;;;;;10.48;4.10;;;;;;;;;;6221535;28;20042;-78
2023/12/18 05:36:04;;;;;;;7.60;3.70;;;;;;;;;;6223773;28;20046;-79
2023/12/18 05:39:06;;;;;;;17.23;8.48;;;;;;;;;;6193203;28;20054;-81
2023/12/18 05:42:08;;;;;;;10.93;4.93;;;;;;;;;;6205863;28;20042;-79
2023/12/18 05:45:10;;;;;;;9.55;3.95;;;;;;;;;;6205006;28;20046;-79
2023/12/18 05:48:12;;;;;;;8.43;4.20;;;;;;;;;;6207893;28;20053;-80
2023/12/18 05:51:24;;;;;;;8.48;3.95;;;;;;;;;;6205601;28;20057;-80
2023/12/18 05:54:25;;;;;;;9.52;4.13;;;;;;;;;;6179501;28;20053;-79
2023/12/18 05:57:27;;;;;;;7.72;3.83;;;;;;;;;;6206828;28;20061;-79
2023/12/18 06:00:29;;;;;;;6.72;3.63;;;;;;;;;;6203088;28;20119;-79
2023/12/18 06:03:31;;;;;;;8.85;4.50;;;;;;;;;;6205723;28;20042;-79
2023/12/18 06:06:33;;;;;;;10.63;4.70;;;;;;;;;;6206197;28;20060;-79
2023/12/18 06:09:35;;;;;;;9.60;4.38;;;;;;;;;;6188892;28;20569;-79
2023/12/18 06:12:37;;;;;;;11.57;6.15;;;;;;;;;;6204585;28;20273;-79
2023/12/18 06:15:39;;;;;;;12.82;5.75;;;;;;;;;;6204379;28;20050;-79
2023/12/18 06:18:41;;;;;;;8.63;4.28;;;;;;;;;;6233823;28;20105;-79
2023/12/18 06:21:43;;;;;;;9.95;4.60;;;;;;;;;;6204174;28;20049;-78
2023/12/18 06:24:45;;;;;;;9.77;4.85;;;;;;;;;;6208311;28;20051;-80
2023/12/18 06:27:46;;;;;;;10.73;5.82;;;;;;;;;;6207221;28;20132;-79
2023/12/18 06:30:48;;;;;;;15.55;6.80;;;;;;;;;;6203921;28;20486;-80
2023/12/18 06:33:50;;;;;;;10.30;4.78;;;;;;;;;;6188935;28;20050;-80
2023/12/18 06:36:52;;;;;;;10.60;4.70;;;;;;;;;;6205385;28;20137;-79
2023/12/18 06:39:54;;;;;;;11.27;5.05;;;;;;;;;;6202917;28;20057;-79
2023/12/18 06:42:56;;;;;;;9.77;4.97;;;;;;;;;;6203356;28;20053;-79
2023/12/18 06:45:59;;;;;;;8.98;4.60;;;;;;;;;;6181057;28;20061;-79
2023/12/18 06:49:02;;;;;;;;;;;;;;;;;;6187133;28;20427;-80
2023/12/18 06:52:04;;;;;;;10.32;5.00;;;;;;;;;;6175581;28;19925;-78
2023/12/18 06:55:07;;;;;;;8.57;4.87;;;;;;;;;;6199941;28;20206;-78
2023/12/18 06:58:08;;;;;;;10.23;5.00;;;;;;;;;;6202841;28;20097;-79
2023/12/18 07:01:10;;;;;;;9.77;4.25;;;;;;;;;;6200398;28;20056;-79
2023/12/18 07:04:12;;;;;;;8.65;4.28;;;;;;;;;;6181547;28;20156;-82
2023/12/18 07:07:14;;;;;;;9.88;4.57;;;;;;;;;;6201730;28;20320;-82
2023/12/18 07:10:16;;;;;;;12.40;5.38;;;;;;;;;;6203573;28;20049;-80
2023/12/18 07:13:18;;;;;;;9.93;4.72;;;;;;;;;;6201863;28;20050;-80
2023/12/18 07:16:21;;;;;;;16.95;8.00;;;;;;;;;;6202005;28;20046;-78
2023/12/18 07:19:23;;;;;;;17.88;7.40;;;;;;;;;;6203204;28;20042;-79
2023/12/18 07:22:26;;;;;;;12.57;5.83;;;;;;;;;;6202648;28;20053;-80
2023/12/18 07:25:28;;;;;;;18.38;8.57;;;;;;;;;;6205988;28;20123;-81
2023/12/18 07:28:30;;;;;;;16.52;7.95;;;;;;;;;;6209335;28;20189;-80
2023/12/18 07:31:32;;;;;;;13.75;6.30;;;;;;;;;;6209102;28;20046;-80
2023/12/18 07:34:34;;;;;;;12.50;5.20;;;;;;;;;;6208507;28;20109;-80
2023/12/18 07:37:37;;;;;;;10.77;5.17;;;;;;;;;;6208963;28;20050;-80
2023/12/18 07:40:38;;;;;;;10.60;4.93;;;;;;;;;;6209447;28;20057;-80
2023/12/18 07:43:40;;;;;;;10.48;4.57;;;;;;;;;;6188180;28;20046;-80
2023/12/18 07:46:42;;;;;;;10.20;4.63;;;;;;;;;;6205698;28;20049;-78
2023/12/18 07:49:44;;;;;;;9.70;5.07;;;;;;;;;;6212941;28;20084;-80
2023/12/18 07:52:51;;;;;;;10.07;4.43;;;;;;;;;;6215890;28;20046;-80
2023/12/18 07:55:53;;;;;;;10.13;4.88;;;;;;;;;;6215183;28;20183;-80
2023/12/18 07:58:55;;;;;;;8.70;4.47;;;;;;;;;;6214883;28;20049;-81
2023/12/18 08:01:56;;;;;;;13.07;7.82;;;;;;;;;;6216947;28;20049;-81
2023/12/18 08:04:58;;;;;;;11.25;6.35;;;;;;;;;;6195718;28;20061;-80
2023/12/18 08:08:00;;;;;;;10.95;4.80;;;;;;;;;;6213832;28;20416;-80
2023/12/18 08:11:02;;;;;;;10.23;4.68;;;;;;;;;;6217673;28;20419;-80
2023/12/18 08:14:04;;;;;;;10.13;4.75;;;;;;;;;;6213515;28;20678;-80
2023/12/18 08:17:06;;;;;;;13.07;4.82;;;;;;;;;;6214669;28;20042;-80
2023/12/18 08:20:07;;;;;;;9.50;4.90;;;;;;;;;;6194965;28;20176;-82
2023/12/18 08:23:09;;;;;;;12.02;4.95;;;;;;;;;;6169208;28;20080;-83
2023/12/18 08:26:12;;;;;;;11.20;5.20;;;;;;;;;;6210795;28;20127;-83
2023/12/18 08:29:14;;;;;;;14.75;6.40;;;;;;;;;;6213538;28;20049;-80
2023/12/18 08:32:16;;;;;;;9.75;5.30;;;;;;;;;;6237014;28;20050;-84
2023/12/18 08:35:18;;;;;;;12.63;6.10;;;;;;;;;;6188258;28;20187;-80
2023/12/18 08:38:19;;;;;;;9.75;5.13;;;;;;;;;;6232383;28;20065;-81
2023/12/18 08:41:21;;;;;;;9.07;5.13;;;;;;;;;;6191736;28;20054;-82
2023/12/18 08:44:23;;;;;;;11.27;5.22;;;;;;;;;;6212419;28;20057;-81
2023/12/18 08:47:26;;;;;;;13.82;5.38;;;;;;;;;;6208407;28;20053;-83
2023/12/18 08:50:29;;;;;;;;;;;;;;;;;;6192234;28;20056;-81
2023/12/18 08:53:33;;;;;;;25.00;9.05;;;;;;;;;;6188833;28;19921;-81
2023/12/18 08:56:35;;;;;;;10.05;5.28;;;;;;;;;;6206835;28;20125;-78
2023/12/18 08:59:37;;;;;;;10.40;5.40;;;;;;;;;;6207477;28;20707;-80
2023/12/18 09:02:39;;;;;;;11.32;5.57;;;;;;;;;;6214789;28;20670;-80
2023/12/18 09:05:41;;;;;;;36.00;9.88;;;;;;;;;;6197993;28;20049;-77
2023/12/18 09:08:44;;;;;;;10.15;4.97;;;;;;;;;;6213556;28;20136;-80
2023/12/18 09:11:46;;;;;;;9.98;4.65;;;;;;;;;;6213904;28;20053;-77
2023/12/18 09:14:48;;;;;;;54.47;13.00;;;;;;;;;;6175603;28;20053;-80
2023/12/18 09:17:50;;;;;;;9.18;4.80;;;;;;;;;;6210744;28;20065;-82
2023/12/18 09:20:51;;;;;;;31.30;9.70;;;;;;;;;;6193553;28;20046;-82
2023/12/18 09:23:53;;;;;;;9.88;4.93;;;;;;;;;;6210556;28;20049;-81
2023/12/18 09:26:55;;;;;;;12.38;5.32;;;;;;;;;;6191994;28;20054;-81
2023/12/18 09:29:58;;;;;;;8.60;4.50;;;;;;;;;;6215334;28;20049;-78
2023/12/18 09:32:59;;;;;;;148.25;35.13;;;;;;;;;;6206189;28;20081;-77
2023/12/18 09:36:02;;;;;;;12.82;5.53;;;;;;;;;;6222752;28;20109;-81
2023/12/18 09:39:04;;;;;;;11.50;5.03;;;;;;;;;;6208196;28;20046;-81
2023/12/18 09:42:06;;;;;;;8.88;4.70;;;;;;;;;;6189724;28;20053;-79
2023/12/18 09:45:09;;;;;;;7.72;4.22;;;;;;;;;;6205043;28;20053;-79
2023/12/18 09:48:11;;;;;;;8.75;4.15;;;;;;;;;;6207954;28;20042;-78
2023/12/18 09:51:17;;;;;;;9.70;4.38;;;;;;;;;;6209373;28;20622;-79
2023/12/18 09:54:24;;;;;;;11.43;5.22;;;;;;;;;;6207889;28;20188;-78
2023/12/18 09:57:27;;;;;;;10.27;4.80;;;;;;;;;;6183781;28;20057;-78
2023/12/18 10:00:29;;;;;;;8.60;4.47;;;;;;;;;;6190776;28;20511;-78
2023/12/18 10:03:30;;;;;;;10.48;4.55;;;;;;;;;;6186602;28;20068;-79
2023/12/18 10:06:32;;;;;;;12.05;5.05;;;;;;;;;;6207085;28;20045;-79
2023/12/18 10:09:35;;;;;;;9.80;5.13;;;;;;;;;;6207146;28;20060;-79
2023/12/18 10:12:40;;;;;;;8.70;4.95;;;;;;;;;;6193440;28;20049;-77
2023/12/18 10:15:43;;;;;;;12.68;4.82;;;;;;;;;;6204002;28;20034;-78
2023/12/18 10:18:45;;;;;;;8.98;4.72;;;;;;;;;;6189191;28;20447;-78
2023/12/18 10:21:48;;;;;;;10.38;4.95;;;;;;;;;;6207078;28;20050;-77
2023/12/18 10:24:51;;;;;;;7.32;4.40;;;;;;;;;;6205133;28;20105;-80
2023/12/18 10:27:54;;;;;;;8.93;4.70;;;;;;;;;;6177296;28;20060;-78
2023/12/18 10:30:56;;;;;;;9.77;4.60;;;;;;;;;;6204724;28;20049;-79
2023/12/18 10:33:59;;;;;;;9.60;4.30;;;;;;;;;;6208101;28;20563;-79
2023/12/18 10:37:01;;;;;;;9.25;4.63;;;;;;;;;;6209504;28;20136;-80
2023/12/18 10:40:09;;;;;;;9.35;4.10;;;;;;;;;;6182717;28;20046;-79
2023/12/18 10:43:23;;;;;;;10.63;5.15;;;;;;;;;;6200646;28;20523;-79
2023/12/18 10:46:26;;;;;;;82.70;22.55;;;;;;;;;;6206506;28;20571;-81
2023/12/18 10:49:31;;;;;;;16.95;6.25;;;;;;;;;;6188583;28;20053;-81
2023/12/18 10:52:33;;;;;;;34.25;11.20;;;;;;;;;;6205090;28;20088;-80
2023/12/18 10:55:36;;;;;;;12.90;6.37;;;;;;;;;;6203917;28;20057;-81
2023/12/18 10:58:41;;;;;;;9.75;4.47;;;;;;;;;;6206779;28;20463;-80
2023/12/18 11:01:44;;;;;;;10.40;5.50;;;;;;;;;;6191452;28;21131;-81
2023/12/18 11:04:48;;;;;;;10.90;5.93;;;;;;;;;;6193168;28;20052;-78
2023/12/18 11:07:49;;;;;;;10.63;5.93;;;;;;;;;;6208513;28;20050;-79
2023/12/18 11:10:54;;;;;;;8.50;4.35;;;;;;;;;;6210400;28;20049;-79
2023/12/18 11:14:13;;;;;;;23.58;8.25;;;;;;;;;;6189743;28;20061;-81
2023/12/18 11:17:46;;;;;;;11.75;5.80;;;;;;;;;;6208492;28;20053;-81
2023/12/18 11:20:51;;;;;;;8.77;4.85;;;;;;;;;;6206580;28;20049;-77
2023/12/18 11:23:53;;;;;;;10.20;5.32;;;;;;;;;;6187079;28;20716;-81
2023/12/18 11:27:08;;;;;;;12.20;5.30;;;;;;;;;;6204595;28;20042;-77
2023/12/18 11:30:32;;;;;;;11.40;5.80;;;;;;;;;;6205348;28;20050;-79
2023/12/18 11:33:34;;;;;;;10.20;5.53;;;;;;;;;;6204660;28;20445;-78
2023/12/18 11:36:47;;;;;;;10.65;5.28;;;;;;;;;;6202537;28;20050;-77
2023/12/18 11:39:49;;;;;;;;;;;;;;;;;;6204398;28;20050;-79
2023/12/18 11:42:52;;;;;;;9.40;5.25;;;;;;;;;;6193871;28;19933;-80
2023/12/18 11:46:02;;;;;;;9.82;5.03;;;;;;;;;;6141060;28;20053;-79
2023/12/18 11:49:13;;;;;;;10.00;5.67;;;;;;;;;;6124840;28;20052;-81
2023/12/18 11:52:25;;;;;;;10.27;5.20;;;;;;;;;;6138357;28;20152;-77
2023/12/18 11:55:38;;;;;;;9.48;5.40;;;;;;;;;;6139019;28;20054;-80
2023/12/18 11:58:47;;;;;;;9.20;5.03;;;;;;;;;;6121778;28;20049;-79
2023/12/18 12:01:55;;;;;;;11.90;5.88;;;;;;;;;;6155901;28;20041;-81
2023/12/18 12:05:01;;;;;;;13.43;7.25;;;;;;;;;;6168712;28;20049;-80
2023/12/18 12:08:09;;;;;;;11.80;5.43;;;;;;;;;;6166643;28;20564;-79
2023/12/18 12:11:11;;;;;;;9.15;4.97;;;;;;;;;;6190512;28;20049;-77
2023/12/18 12:14:13;;;;;;;10.18;5.53;;;;;;;;;;6183963;28;20057;-80
2023/12/18 12:17:19;;;;;;;8.90;4.88;;;;;;;;;;6204914;28;20053;-79
2023/12/18 12:20:21;;;;;;;9.50;5.30;;;;;;;;;;6206547;28;20050;-80
2023/12/18 12:23:23;;;;;;;11.32;5.80;;;;;;;;;;6201878;28;20073;-78
2023/12/18 12:26:25;;;;;;;11.48;5.57;;;;;;;;;;6205743;28;20435;-80
2023/12/18 12:29:27;;;;;;;9.30;4.75;;;;;;;;;;6177809;28;20045;-79
2023/12/18 12:32:29;;;;;;;9.48;5.15;;;;;;;;;;6167613;28;20049;-80
2023/12/18 12:35:32;;;;;;;9.15;5.18;;;;;;;;;;6190214;28;20459;-79
2023/12/18 12:38:39;;;;;;;9.93;6.10;;;;;;;;;;6205863;28;20056;-81
2023/12/18 12:41:41;;;;;;;11.82;5.90;;;;;;;;;;6199610;28;20048;-82
2023/12/18 12:44:42;;;;;;;8.40;4.90;;;;;;;;;;6193002;28;20046;-79
2023/12/18 12:47:45;;;;;;;10.32;6.38;;;;;;;;;;6212240;28;20052;-80
2023/12/18 12:50:48;;;;;;;8.70;4.78;;;;;;;;;;6209180;28;20764;-81
2023/12/18 12:53:51;;;;;;;35.22;20.08;;;;;;;;;;6187939;28;20398;-78
2023/12/18 12:56:53;;;;;;;12.50;5.72;;;;;;;;;;6231535;28;20056;-79
2023/12/18 12:59:56;;;;;;;10.73;6.70;;;;;;;;;;6216227;28;20102;-81
2023/12/18 13:02:58;;;;;;;44.42;27.85;;;;;;;;;;6209529;28;20072;-80
2023/12/18 13:06:03;;;;;;;7.55;4.45;;;;;;;;;;6159061;28;20053;-81
2023/12/18 13:09:09;;;;;;;9.95;6.20;;;;;;;;;;6185068;28;20042;-80
2023/12/18 13:12:15;;;;;;;41.60;23.30;;;;;;;;;;6179175;28;20137;-80
2023/12/18 13:15:17;;;;;;;10.25;6.90;;;;;;;;;;6198720;28;20406;-81
2023/12/18 13:18:22;;;;;;;9.73;6.18;;;;;;;;;;6152609;28;20050;-82
2023/12/18 13:21:27;;;;;;;9.77;6.35;;;;;;;;;;6144492;28;20049;-83
2023/12/18 13:24:33;;;;;;;7.32;5.13;;;;;;;;;;6157066;28;20042;-80
2023/12/18 13:27:36;;;;;;;14.57;8.32;;;;;;;;;;6219056;23;20057;-84
2023/12/18 13:30:41;;;;;;;27.85;11.38;;;;;;;;;;6225877;28;20046;-84
2023/12/18 13:33:46;;;;;;;13.88;7.82;;;;;;;;;;6192701;28;20094;-84
2023/12/18 13:36:48;;;;;;;10.23;6.45;;;;;;;;;;6193424;28;20042;-83
2023/12/18 13:39:50;;;;;;;10.43;6.72;;;;;;;;;;6189710;28;20046;-83
2023/12/18 13:42:52;;;;;;;14.35;7.97;;;;;;;;;;6191200;28;20054;-86
2023/12/18 13:45:54;;;;;;;14.25;7.65;;;;;;;;;;6184467;28;20061;-85
2023/12/18 13:48:58;;;;;;;11.18;6.63;;;;;;;;;;6185105;28;20045;-83
2023/12/18 13:52:00;;;;;;;10.65;6.35;;;;;;;;;;6196712;28;20057;-84
2023/12/18 13:55:02;;;;;;;14.02;6.88;;;;;;;;;;6204079;28;20485;-83
2023/12/18 13:58:04;;;;;;;12.02;7.00;;;;;;;;;;6186659;28;20516;-83
2023/12/18 14:01:07;;;;;;;12.25;6.72;;;;;;;;;;6186586;28;20050;-83
2023/12/18 14:04:09;;;;;;;11.63;5.53;;;;;;;;;;6181941;28;20406;-86
2023/12/18 14:07:11;;;;;;;12.60;6.68;;;;;;;;;;6177977;28;20553;-86
2023/12/18 14:10:12;;;;;;;13.27;6.45;;;;;;;;;;6177503;28;20057;-85
2023/12/18 14:13:14;;;;;;;14.13;6.93;;;;;;;;;;6196694;28;20058;-85
2023/12/18 14:16:17;;;;;;;12.25;6.47;;;;;;;;;;6206145;28;20058;-85
2023/12/18 14:19:18;;;;;;;11.87;6.67;;;;;;;;;;6193480;28;20594;-86
2023/12/18 14:22:20;;;;;;;12.45;6.82;;;;;;;;;;6218099;28;20056;-85
2023/12/18 14:25:22;;;;;;;16.27;7.70;;;;;;;;;;6190350;28;20073;-84
2023/12/18 14:28:24;;;;;;;13.65;6.93;;;;;;;;;;6206840;28;20034;-85
2023/12/18 14:31:26;;;;;;;12.60;7.25;;;;;;;;;;6215797;28;20532;-85
2023/12/18 14:34:28;;;;;;;13.00;7.22;;;;;;;;;;6188770;28;20042;-85
2023/12/18 14:37:30;;;;;;;15.45;8.38;;;;;;;;;;6192431;28;20046;-85
2023/12/18 14:40:32;;;;;;;14.88;7.15;;;;;;;;;;6169187;28;20042;-86
2023/12/18 14:43:34;;;;;;;17.30;7.77;;;;;;;;;;6161100;28;20581;-84
2023/12/18 14:46:36;;;;;;;16.40;8.55;;;;;;;;;;6163924;28;20128;-85
2023/12/18 14:49:38;;;;;;;18.00;8.15;;;;;;;;;;6167025;28;20062;-84
2023/12/18 14:52:40;;;;;;;17.15;8.48;;;;;;;;;;6167387;28;20053;-85
2023/12/18 14:55:42;;;;;;;18.17;8.55;;;;;;;;;;6182080;28;20049;-85
2023/12/18 14:58:44;;;;;;;17.88;9.13;;;;;;;;;;6163301;28;20049;-84
2023/12/18 15:01:45;;;;;;;18.70;8.98;;;;;;;;;;6179581;28;20050;-84
2023/12/18 15:04:47;;;;;;;18.23;8.45;;;;;;;;;;6194154;28;20111;-85
2023/12/18 15:07:52;;;;;;;19.00;8.73;;;;;;;;;;6178555;28;20538;-84
2023/12/18 15:10:55;;;;;;;19.23;8.70;;;;;;;;;;6171939;28;20049;-85
2023/12/18 15:13:58;;;;;;;20.30;8.65;;;;;;;;;;6158576;28;20053;-85
2023/12/18 15:17:04;;;;;;;16.98;8.32;;;;;;;;;;6179290;28;20046;-84
2023/12/18 15:20:08;;;;;;;17.73;8.90;;;;;;;;;;6175328;28;20130;-83
2023/12/18 15:23:10;;;;;;;18.13;8.10;;;;;;;;;;6178456;28;20054;-84
2023/12/18 15:26:12;;;;;;;18.48;7.07;;;;;;;;;;6175822;28;20076;-83
2023/12/18 15:29:14;;;;;;;16.77;7.70;;;;;;;;;;6181723;28;20046;-84
2023/12/18 15:32:15;;;;;;;16.00;8.27;;;;;;;;;;6180083;28;20049;-83
2023/12/18 15:35:20;;;;;;;16.23;7.53;;;;;;;;;;6181011;28;20115;-83
2023/12/18 15:38:22;;;;;;;18.05;8.35;;;;;;;;;;6181649;28;20050;-85
2023/12/18 15:41:23;;;;;;;20.30;8.00;;;;;;;;;;6179335;28;20046;-83
2023/12/18 15:44:25;;;;;;;19.45;8.38;;;;;;;;;;6178705;28;20051;-84
2023/12/18 15:47:28;;;;;;;18.67;8.48;;;;;;;;;;6179723;28;20057;-84
2023/12/18 15:50:29;;;;;;;23.88;11.15;;;;;;;;;;6183283;28;20668;-87
2023/12/18 15:53:31;;;;;;;21.58;10.15;;;;;;;;;;6190883;28;20120;-85
2023/12/18 15:56:33;;;;;;;20.45;9.10;;;;;;;;;;6189137;28;20054;-84
2023/12/18 15:59:35;;;;;;;20.15;8.65;;;;;;;;;;6188629;28;20064;-84
2023/12/18 16:02:36;;;;;;;27.20;12.07;;;;;;;;;;6179230;28;20466;-83
2023/12/18 16:05:38;;;;;;;27.58;13.63;;;;;;;;;;6182834;28;20054;-84
2023/12/18 16:08:40;;;;;;;24.20;9.80;;;;;;;;;;6164525;28;20052;-83
2023/12/18 16:11:42;;;;;;;28.48;11.40;;;;;;;;;;6189645;28;20054;-84
2023/12/18 16:14:44;;;;;;;25.17;10.00;;;;;;;;;;6196552;28;20061;-85
2023/12/18 16:17:47;;;;;;;22.67;8.77;;;;;;;;;;6194161;28;20862;-85
2023/12/18 16:20:48;;;;;;;18.88;8.27;;;;;;;;;;6193128;28;20046;-85
2023/12/18 16:23:51;;;;;;;17.88;8.18;;;;;;;;;;6180550;28;20054;-84
2023/12/18 16:26:53;;;;;;;17.73;8.80;;;;;;;;;;6200509;28;20420;-84
2023/12/18 16:29:56;;;;;;;21.05;8.70;;;;;;;;;;6175709;28;20052;-84
2023/12/18 16:33:01;;;;;;;21.45;9.93;;;;;;;;;;6167944;28;20054;-85
2023/12/18 16:36:03;;;;;;;16.92;8.45;;;;;;;;;;6185185;28;20441;-84
2023/12/18 16:39:06;;;;;;;23.70;11.07;;;;;;;;;;6172250;28;20073;-84
2023/12/18 16:42:10;;;;;;;24.10;10.85;;;;;;;;;;6193179;28;20069;-84
2023/12/18 16:45:13;;;;;;;21.73;9.60;;;;;;;;;;6182439;28;20423;-84
2023/12/18 16:48:15;;;;;;;56.42;17.73;;;;;;;;;;6178613;28;20054;-84
2023/12/18 16:51:17;;;;;;;23.27;9.10;;;;;;;;;;6167140;28;20152;-86
2023/12/18 16:54:18;;;;;;;16.92;7.07;;;;;;;;;;6193497;28;20057;-83
2023/12/18 16:57:20;;;;;;;15.48;7.55;;;;;;;;;;6172745;28;20056;-83
2023/12/18 17:00:22;;;;;;;15.98;7.45;;;;;;;;;;6174507;28;20053;-82
2023/12/18 17:03:24;;;;;;;18.45;8.27;;;;;;;;;;6195686;28;20050;-83
2023/12/18 17:06:26;;;;;;;58.38;21.63;;;;;;;;;;6173961;28;20050;-83
2023/12/18 17:09:28;;;;;;;18.60;7.57;;;;;;;;;;6164127;28;20077;-83
2023/12/18 17:12:30;;;;;;;21.20;8.85;;;;;;;;;;6178295;28;20034;-84
2023/12/18 17:15:32;;;;;;;19.80;8.15;;;;;;;;;;6192400;28;20046;-83
2023/12/18 17:18:34;;;;;;;22.40;8.70;;;;;;;;;;6183541;28;20050;-83
2023/12/18 17:21:36;;;;;;;16.67;8.10;;;;;;;;;;6183585;28;20046;-83
2023/12/18 17:24:38;;;;;;;17.38;9.18;;;;;;;;;;6189471;28;20042;-84
2023/12/18 17:27:40;;;;;;;18.10;8.48;;;;;;;;;;6195010;28;20459;-84
2023/12/18 17:30:42;;;;;;;18.80;9.63;;;;;;;;;;6188240;28;20038;-84
2023/12/18 17:33:44;;;;;;;18.02;7.95;;;;;;;;;;6197546;28;20848;-85
2023/12/18 17:36:46;;;;;;;20.27;8.90;;;;;;;;;;6198346;28;20052;-83
2023/12/18 17:39:48;;;;;;;22.67;10.30;;;;;;;;;;6197911;28;20050;-84
2023/12/18 17:42:50;;;;;;;18.42;7.80;;;;;;;;;;6153825;28;20141;-83
2023/12/18 17:45:53;;;;;;;16.55;7.32;;;;;;;;;;6170479;28;20050;-83
2023/12/18 17:48:55;;;;;;;26.27;13.48;;;;;;;;;;6196726;28;20050;-83
2023/12/18 17:51:57;;;;;;;32.55;15.65;;;;;;;;;;6176507;28;20538;-84
2023/12/18 17:54:58;;;;;;;21.85;12.00;;;;;;;;;;6187410;28;20100;-83
2023/12/18 17:58:00;;;;;;;17.73;9.63;;;;;;;;;;6184514;28;20054;-84
2023/12/18 18:01:02;;;;;;;20.65;9.73;;;;;;;;;;6194920;28;21551;-86
2023/12/18 18:04:04;;;;;;;26.38;11.93;;;;;;;;;;6162142;28;20052;-86